createdAt,value
2018-04-10T00:00:23.589Z,15.36
2018-04-10T00:01:23.559Z,15.38
2018-04-10T00:02:23.558Z,15.35
2018-04-10T00:03:23.532Z,15.35
2018-04-10T00:04:23.514Z,15.33
2018-04-10T00:05:23.500Z,15.36
2018-04-10T00:06:23.485Z,15.27
2018-04-10T00:07:23.470Z,15.20
2018-04-10T00:08:23.491Z,15.20
2018-04-10T00:09:23.457Z,15.33
2018-04-10T00:10:23.417Z,15.30
2018-04-10T00:11:23.426Z,15.15
2018-04-10T00:12:23.408Z,15.22
2018-04-10T00:13:23.377Z,15.08
2018-04-10T00:14:23.357Z,15.07
2018-04-10T00:15:23.333Z,15.11
2018-04-10T00:16:23.315Z,15.08
2018-04-10T00:17:23.330Z,15.05
2018-04-10T00:18:23.288Z,15.04
2018-04-10T00:19:23.275Z,14.99
2018-04-10T00:20:23.274Z,14.99
2018-04-10T00:21:23.237Z,15.04
2018-04-10T00:22:23.246Z,14.97
2018-04-10T00:23:23.223Z,14.96
2018-04-10T00:24:23.191Z,14.89
2018-04-10T00:25:23.175Z,14.96
2018-04-10T00:26:23.160Z,14.93
2018-04-10T00:27:23.154Z,14.90
2018-04-10T00:28:23.128Z,14.92
2018-04-10T00:29:23.107Z,14.85
2018-04-10T00:30:23.107Z,14.87
2018-04-10T00:31:23.084Z,14.89
2018-04-10T00:32:23.057Z,14.85
2018-04-10T00:33:23.045Z,14.70
2018-04-10T00:34:23.016Z,14.74
2018-04-10T00:35:23.001Z,14.79
2018-04-10T00:36:23.005Z,14.74
2018-04-10T00:37:22.968Z,14.74
2018-04-10T00:38:22.989Z,14.66
2018-04-10T00:39:22.966Z,14.70
2018-04-10T00:40:22.940Z,14.66
2018-04-10T00:41:22.901Z,14.66
2018-04-10T00:42:22.896Z,14.63
2018-04-10T00:43:22.895Z,14.61
2018-04-10T00:44:22.856Z,14.56
2018-04-10T00:45:22.868Z,14.70
2018-04-10T00:46:22.816Z,14.53
2018-04-10T00:47:22.804Z,14.58
2018-04-10T00:48:22.788Z,14.61
2018-04-10T00:49:22.800Z,14.51
2018-04-10T00:50:22.760Z,14.58
2018-04-10T00:51:22.738Z,14.61
2018-04-10T00:52:22.716Z,14.58
2018-04-10T00:53:22.705Z,14.49
2018-04-10T00:54:22.712Z,14.48
2018-04-10T00:55:22.668Z,14.49
2018-04-10T00:56:22.685Z,14.51
2018-04-10T00:57:22.642Z,14.44
2018-04-10T00:58:22.628Z,14.38
2018-04-10T00:59:22.613Z,14.48
2018-04-10T01:00:22.593Z,14.34
2018-04-10T01:01:22.565Z,14.45
2018-04-10T01:02:22.550Z,14.33
2018-04-10T01:03:22.533Z,14.33
2018-04-10T01:04:22.541Z,14.37
2018-04-10T01:05:22.505Z,14.36
2018-04-10T01:06:22.508Z,14.37
2018-04-10T01:07:22.477Z,14.37
2018-04-10T01:08:22.476Z,14.41
2018-04-10T01:09:22.448Z,14.31
2018-04-10T01:10:22.457Z,14.34
2018-04-10T01:11:22.401Z,14.34
2018-04-10T01:12:22.409Z,14.37
2018-04-10T01:13:22.399Z,14.36
2018-04-10T01:14:22.399Z,14.34
2018-04-10T01:15:22.332Z,14.36
2018-04-10T01:16:22.338Z,14.44
2018-04-10T01:17:22.299Z,14.36
2018-04-10T01:18:22.297Z,14.28
2018-04-10T01:19:22.267Z,14.36
2018-04-10T01:20:22.248Z,14.31
2018-04-10T01:21:22.226Z,14.30
2018-04-10T01:22:22.218Z,14.30
2018-04-10T01:23:22.195Z,14.36
2018-04-10T01:24:22.208Z,14.34
2018-04-10T01:25:22.160Z,14.30
2018-04-10T01:26:22.171Z,14.34
2018-04-10T01:27:22.128Z,14.31
2018-04-10T01:28:22.117Z,14.26
2018-04-10T01:29:22.098Z,14.26
2018-04-10T01:30:22.078Z,14.27
2018-04-10T01:31:22.072Z,14.18
2018-04-10T01:32:22.067Z,14.19
2018-04-10T01:33:22.052Z,14.18
2018-04-10T01:34:22.033Z,14.15
2018-04-10T01:35:21.991Z,14.15
2018-04-10T01:36:22.011Z,14.13
2018-04-10T01:37:21.975Z,14.12
2018-04-10T01:38:21.948Z,14.05
2018-04-10T01:39:21.947Z,14.08
2018-04-10T01:40:21.910Z,14.12
2018-04-10T01:41:21.902Z,14.18
2018-04-10T01:42:21.881Z,14.15
2018-04-10T01:43:21.876Z,14.16
2018-04-10T01:44:21.843Z,14.01
2018-04-10T01:45:21.831Z,13.98
2018-04-10T01:46:21.800Z,13.94
2018-04-10T01:47:21.801Z,13.96
2018-04-10T01:48:21.772Z,13.98
2018-04-10T01:49:21.748Z,13.96
2018-04-10T01:50:21.740Z,13.97
2018-04-10T01:51:21.712Z,13.91
2018-04-10T01:52:21.695Z,13.90
2018-04-10T01:53:21.678Z,13.94
2018-04-10T01:54:21.667Z,13.83
2018-04-10T01:55:21.648Z,13.88
2018-04-10T01:56:21.634Z,13.82
2018-04-10T01:57:21.615Z,13.93
2018-04-10T01:58:21.599Z,13.86
2018-04-10T01:59:21.586Z,13.86
2018-04-10T02:00:21.563Z,13.80
2018-04-10T02:01:21.548Z,13.76
2018-04-10T02:02:21.535Z,13.76
2018-04-10T02:03:21.519Z,13.68
2018-04-10T02:04:21.500Z,13.64
2018-04-10T02:05:21.530Z,13.68
2018-04-10T02:06:21.457Z,13.65
2018-04-10T02:07:21.463Z,13.65
2018-04-10T02:08:21.434Z,13.61
2018-04-10T02:09:21.413Z,13.61
2018-04-10T02:10:21.422Z,13.64
2018-04-10T02:11:21.401Z,13.67
2018-04-10T02:12:21.391Z,13.63
2018-04-10T02:13:21.349Z,13.61
2018-04-10T02:14:21.316Z,13.58
2018-04-10T02:15:21.308Z,13.64
2018-04-10T02:16:21.284Z,13.51
2018-04-10T02:17:21.267Z,13.49
2018-04-10T02:18:21.268Z,13.46
2018-04-10T02:19:21.238Z,13.47
2018-04-10T02:20:21.227Z,13.53
2018-04-10T02:21:21.225Z,13.55
2018-04-10T02:22:21.182Z,13.54
2018-04-10T02:23:21.182Z,13.61
2018-04-10T02:24:21.160Z,13.47
2018-04-10T02:25:21.142Z,13.58
2018-04-10T02:26:21.112Z,13.49
2018-04-10T02:27:21.096Z,13.43
2018-04-10T02:28:21.106Z,13.53
2018-04-10T02:29:21.088Z,13.49
2018-04-10T02:30:21.045Z,13.53
2018-04-10T02:31:21.042Z,13.46
2018-04-10T02:32:21.015Z,13.46
2018-04-10T02:33:21.005Z,13.53
2018-04-10T02:34:20.993Z,13.46
2018-04-10T02:35:20.983Z,13.51
2018-04-10T02:36:20.945Z,13.45
2018-04-10T02:37:20.925Z,13.47
2018-04-10T02:38:20.939Z,13.49
2018-04-10T02:39:20.910Z,13.51
2018-04-10T02:40:20.890Z,13.61
2018-04-10T02:41:20.854Z,13.51
2018-04-10T02:42:20.841Z,13.53
2018-04-10T02:43:20.816Z,13.55
2018-04-10T02:44:20.805Z,13.49
2018-04-10T02:45:20.807Z,13.57
2018-04-10T02:46:20.773Z,13.43
2018-04-10T02:47:20.755Z,13.54
2018-04-10T02:48:20.753Z,13.43
2018-04-10T02:49:20.715Z,13.60
2018-04-10T02:50:20.705Z,13.60
2018-04-10T02:51:20.692Z,13.54
2018-04-10T02:52:20.669Z,13.43
2018-04-10T02:53:20.650Z,13.46
2018-04-10T02:54:20.636Z,13.57
2018-04-10T02:55:20.611Z,13.46
2018-04-10T02:56:20.595Z,13.47
2018-04-10T02:57:20.582Z,13.45
2018-04-10T02:58:20.559Z,13.42
2018-04-10T02:59:20.574Z,13.42
2018-04-10T03:00:20.523Z,13.46
2018-04-10T03:01:20.508Z,13.51
2018-04-10T03:02:20.513Z,13.46
2018-04-10T03:03:20.477Z,13.47
2018-04-10T03:04:20.469Z,13.38
2018-04-10T03:05:20.466Z,13.36
2018-04-10T03:06:20.438Z,13.36
2018-04-10T03:07:20.420Z,13.38
2018-04-10T03:08:20.396Z,13.30
2018-04-10T03:09:20.389Z,13.38
2018-04-10T03:10:20.355Z,13.26
2018-04-10T03:11:20.344Z,13.43
2018-04-10T03:12:20.317Z,13.27
2018-04-10T03:13:20.301Z,13.38
2018-04-10T03:14:20.282Z,13.39
2018-04-10T03:15:20.291Z,13.19
2018-04-10T03:16:20.275Z,13.23
2018-04-10T03:17:20.228Z,13.24
2018-04-10T03:18:20.245Z,13.32
2018-04-10T03:19:20.192Z,13.26
2018-04-10T03:20:20.199Z,13.26
2018-04-10T03:21:20.209Z,13.32
2018-04-10T03:22:20.171Z,13.23
2018-04-10T03:23:20.144Z,13.27
2018-04-10T03:24:20.120Z,13.27
2018-04-10T03:25:20.090Z,13.16
2018-04-10T03:26:20.085Z,13.21
2018-04-10T03:27:20.068Z,13.27
2018-04-10T03:28:20.064Z,13.16
2018-04-10T03:29:20.022Z,13.16
2018-04-10T03:30:20.006Z,13.23
2018-04-10T03:31:19.986Z,13.16
2018-04-10T03:32:19.971Z,13.20
2018-04-10T03:33:19.984Z,13.19
2018-04-10T03:34:19.963Z,13.26
2018-04-10T03:35:19.914Z,13.11
2018-04-10T03:36:19.901Z,13.16
2018-04-10T03:37:19.899Z,13.16
2018-04-10T03:38:19.885Z,13.14
2018-04-10T03:39:19.854Z,13.13
2018-04-10T03:40:19.837Z,13.19
2018-04-10T03:41:19.817Z,13.16
2018-04-10T03:42:19.806Z,13.11
2018-04-10T03:43:19.786Z,13.13
2018-04-10T03:44:19.756Z,13.13
2018-04-10T03:45:19.738Z,13.02
2018-04-10T03:46:19.731Z,13.08
2018-04-10T03:47:19.716Z,13.02
2018-04-10T03:48:19.700Z,13.04
2018-04-10T03:49:19.690Z,13.02
2018-04-10T03:50:19.668Z,12.99
2018-04-10T03:51:19.652Z,12.98
2018-04-10T03:52:19.621Z,13.02
2018-04-10T03:53:19.615Z,13.01
2018-04-10T03:54:19.589Z,12.90
2018-04-10T03:55:19.570Z,12.88
2018-04-10T03:56:19.567Z,12.88
2018-04-10T03:57:19.530Z,12.88
2018-04-10T03:58:19.519Z,12.93
2018-04-10T03:59:19.507Z,12.90
2018-04-10T04:00:19.494Z,12.96
2018-04-10T04:01:19.465Z,12.84
2018-04-10T04:02:19.442Z,12.87
2018-04-10T04:03:19.438Z,12.81
2018-04-10T04:04:19.419Z,12.83
2018-04-10T04:05:19.437Z,12.87
2018-04-10T04:06:19.384Z,12.80
2018-04-10T04:07:19.359Z,12.77
2018-04-10T04:08:19.359Z,12.73
2018-04-10T04:09:19.318Z,12.73
2018-04-10T04:10:19.307Z,12.79
2018-04-10T04:11:19.295Z,12.79
2018-04-10T04:12:19.286Z,12.77
2018-04-10T04:13:19.252Z,12.77
2018-04-10T04:14:19.241Z,12.72
2018-04-10T04:15:19.221Z,12.79
2018-04-10T04:16:19.199Z,12.72
2018-04-10T04:17:19.202Z,12.71
2018-04-10T04:18:19.164Z,12.73
2018-04-10T04:19:19.148Z,12.73
2018-04-10T04:20:19.127Z,12.62
2018-04-10T04:21:19.114Z,12.62
2018-04-10T04:22:19.099Z,12.68
2018-04-10T04:23:19.115Z,12.68
2018-04-10T04:24:19.080Z,12.63
2018-04-10T04:25:19.048Z,12.63
2018-04-10T04:26:19.036Z,12.68
2018-04-10T04:27:19.004Z,12.61
2018-04-10T04:28:19.007Z,12.65
2018-04-10T04:29:18.998Z,12.76
2018-04-10T04:30:18.961Z,12.66
2018-04-10T04:31:18.951Z,12.68
2018-04-10T04:32:18.917Z,12.65
2018-04-10T04:33:18.896Z,12.71
2018-04-10T04:34:18.889Z,12.69
2018-04-10T04:35:18.885Z,12.66
2018-04-10T04:36:18.842Z,12.66
2018-04-10T04:37:18.829Z,12.63
2018-04-10T04:38:18.832Z,12.63
2018-04-10T04:39:18.804Z,12.62
2018-04-10T04:40:18.779Z,12.55
2018-04-10T04:41:18.755Z,12.55
2018-04-10T04:42:18.745Z,12.63
2018-04-10T04:43:18.725Z,12.54
2018-04-10T04:44:18.707Z,12.61
2018-04-10T04:45:18.697Z,12.62
2018-04-10T04:46:18.684Z,12.53
2018-04-10T04:47:18.649Z,12.61
2018-04-10T04:48:18.640Z,12.58
2018-04-10T04:49:18.619Z,12.50
2018-04-10T04:50:18.596Z,12.51
2018-04-10T04:51:18.585Z,12.59
2018-04-10T04:52:18.562Z,12.50
2018-04-10T04:53:18.578Z,12.53
2018-04-10T04:54:18.529Z,12.53
2018-04-10T04:55:18.507Z,12.53
2018-04-10T04:56:18.491Z,12.51
2018-04-10T04:57:18.491Z,12.53
2018-04-10T04:58:18.459Z,12.50
2018-04-10T04:59:18.438Z,12.51
2018-04-10T05:00:18.430Z,12.50
2018-04-10T05:01:18.402Z,12.48
2018-04-10T05:02:18.387Z,12.50
2018-04-10T05:03:18.370Z,12.47
2018-04-10T05:04:18.381Z,12.47
2018-04-10T05:05:18.355Z,12.46
2018-04-10T05:06:18.326Z,12.50
2018-04-10T05:07:18.300Z,12.47
2018-04-10T05:08:18.279Z,12.48
2018-04-10T05:09:18.264Z,12.51
2018-04-10T05:10:18.241Z,12.44
2018-04-10T05:11:18.225Z,12.53
2018-04-10T05:12:18.203Z,12.50
2018-04-10T05:13:18.212Z,12.48
2018-04-10T05:14:18.176Z,12.50
2018-04-10T05:15:18.155Z,12.51
2018-04-10T05:16:18.148Z,12.51
2018-04-10T05:17:18.119Z,12.55
2018-04-10T05:18:18.127Z,12.58
2018-04-10T05:19:18.083Z,12.61
2018-04-10T05:20:18.068Z,12.63
2018-04-10T05:21:18.055Z,12.73
2018-04-10T05:22:18.027Z,12.69
2018-04-10T05:23:18.011Z,12.81
2018-04-10T05:24:17.992Z,12.73
2018-04-10T05:25:17.972Z,12.81
2018-04-10T05:26:17.957Z,12.76
2018-04-10T05:27:17.950Z,12.80
2018-04-10T05:28:17.921Z,12.76
2018-04-10T05:29:17.900Z,12.90
2018-04-10T05:30:17.888Z,12.83
2018-04-10T05:31:17.870Z,12.86
2018-04-10T05:32:17.846Z,12.87
2018-04-10T05:33:17.833Z,12.84
2018-04-10T05:34:17.822Z,12.96
2018-04-10T05:35:17.793Z,12.96
2018-04-10T05:36:17.778Z,12.90
2018-04-10T05:37:17.758Z,12.87
2018-04-10T05:38:17.822Z,12.91
2018-04-10T05:39:17.732Z,12.98
2018-04-10T05:40:17.717Z,12.98
2018-04-10T05:41:17.778Z,13.01
2018-04-10T05:42:17.696Z,13.02
2018-04-10T05:43:17.655Z,13.05
2018-04-10T05:44:17.644Z,13.13
2018-04-10T05:45:17.626Z,13.13
2018-04-10T05:46:17.603Z,13.13
2018-04-10T05:47:17.591Z,13.19
2018-04-10T05:48:17.581Z,13.21
2018-04-10T05:49:17.566Z,13.16
2018-04-10T05:50:17.539Z,13.29
2018-04-10T05:51:17.522Z,13.30
2018-04-10T05:52:17.513Z,13.32
2018-04-10T05:53:17.493Z,13.36
2018-04-10T05:54:17.471Z,13.38
2018-04-10T05:55:17.449Z,13.51
2018-04-10T05:56:17.427Z,13.47
2018-04-10T05:57:17.413Z,13.53
2018-04-10T05:58:17.401Z,13.53
2018-04-10T05:59:17.379Z,13.63
2018-04-10T06:00:17.366Z,13.67
2018-04-10T06:01:17.449Z,13.65
2018-04-10T06:02:17.330Z,13.63
2018-04-10T06:03:17.469Z,13.73
2018-04-10T06:04:17.320Z,13.68
2018-04-10T06:05:17.280Z,13.79
2018-04-10T06:06:17.260Z,13.79
2018-04-10T06:07:17.269Z,13.83
2018-04-10T06:08:17.254Z,13.86
2018-04-10T06:09:17.248Z,13.88
2018-04-10T06:10:17.195Z,13.91
2018-04-10T06:11:17.184Z,13.88
2018-04-10T06:12:17.161Z,13.91
2018-04-10T06:13:17.159Z,13.90
2018-04-10T06:14:17.140Z,13.85
2018-04-10T06:15:17.109Z,13.91
2018-04-10T06:16:17.095Z,14.03
2018-04-10T06:17:17.107Z,13.96
2018-04-10T06:18:17.076Z,14.03
2018-04-10T06:19:17.048Z,14.09
2018-04-10T06:20:17.043Z,14.15
2018-04-10T06:21:17.014Z,14.03
2018-04-10T06:22:17.020Z,14.04
2018-04-10T06:23:16.981Z,14.11
2018-04-10T06:24:16.974Z,14.11
2018-04-10T06:25:16.946Z,14.19
2018-04-10T06:26:16.940Z,14.15
2018-04-10T06:27:16.920Z,14.21
2018-04-10T06:28:16.897Z,14.26
2018-04-10T06:29:16.887Z,14.27
2018-04-10T06:30:16.876Z,14.22
2018-04-10T06:31:16.862Z,14.30
2018-04-10T06:32:16.842Z,14.30
2018-04-10T06:33:16.820Z,14.37
2018-04-10T06:34:16.807Z,14.30
2018-04-10T06:35:17.087Z,14.31
2018-04-10T06:36:16.778Z,14.34
2018-04-10T06:37:16.780Z,14.36
2018-04-10T06:38:16.767Z,14.44
2018-04-10T06:39:16.722Z,14.38
2018-04-10T06:40:16.705Z,14.49
2018-04-10T06:41:16.690Z,14.51
2018-04-10T06:42:16.682Z,14.55
2018-04-10T06:43:16.656Z,14.58
2018-04-10T06:44:16.654Z,14.48
2018-04-10T06:45:16.628Z,14.61
2018-04-10T06:46:16.616Z,14.52
2018-04-10T06:47:16.616Z,14.61
2018-04-10T06:48:16.599Z,14.63
2018-04-10T06:49:16.585Z,14.69
2018-04-10T06:50:16.547Z,14.63
2018-04-10T06:51:16.550Z,14.82
2018-04-10T06:52:16.511Z,14.74
2018-04-10T06:53:16.503Z,14.90
2018-04-10T06:54:16.488Z,14.89
2018-04-10T06:55:16.473Z,14.87
2018-04-10T06:56:16.456Z,14.97
2018-04-10T06:57:16.463Z,15.07
2018-04-10T06:58:16.432Z,15.05
2018-04-10T06:59:16.417Z,15.23
2018-04-10T07:00:16.397Z,15.22
2018-04-10T07:01:16.376Z,15.33
2018-04-10T07:02:16.356Z,15.41
2018-04-10T07:03:16.358Z,15.33
2018-04-10T07:04:16.335Z,15.41
2018-04-10T07:05:16.315Z,15.47
2018-04-10T07:06:16.306Z,15.56
2018-04-10T07:07:16.281Z,15.76
2018-04-10T07:08:16.313Z,15.80
2018-04-10T07:09:16.249Z,15.96
2018-04-10T07:10:16.256Z,16.00
2018-04-10T07:11:16.230Z,16.06
2018-04-10T07:12:16.204Z,16.06
2018-04-10T07:13:16.200Z,16.25
2018-04-10T07:15:38.246Z,16.40
2018-04-10T07:16:38.227Z,16.51
2018-04-10T07:18:32.609Z,16.61
2018-04-10T07:19:32.576Z,16.64
2018-04-10T07:20:32.548Z,16.70
2018-04-10T07:21:32.593Z,16.69
2018-04-10T07:22:32.529Z,16.64
2018-04-10T07:23:32.514Z,16.73
2018-04-10T07:24:32.496Z,16.84
2018-04-10T07:25:32.482Z,16.82
2018-04-10T07:26:32.479Z,16.87
2018-04-10T07:27:32.484Z,16.84
2018-04-10T07:28:32.444Z,16.95
2018-04-10T07:29:32.436Z,16.99
2018-04-10T07:30:32.421Z,17.06
2018-04-10T07:31:32.446Z,17.09
2018-04-10T07:32:32.410Z,17.14
2018-04-10T07:33:32.396Z,17.14
2018-04-10T07:34:32.376Z,17.20
2018-04-10T07:35:32.359Z,17.14
2018-04-10T07:36:32.332Z,17.19
2018-04-10T07:37:32.326Z,17.19
2018-04-10T07:38:32.312Z,17.27
2018-04-10T07:39:32.315Z,17.24
2018-04-10T07:40:32.320Z,17.22
2018-04-10T07:41:32.280Z,17.10
2018-04-10T07:42:32.285Z,17.09
2018-04-10T07:43:32.250Z,17.07
2018-04-10T07:44:32.226Z,17.12
2018-04-10T07:45:32.243Z,17.13
2018-04-10T07:46:32.204Z,17.10
2018-04-10T07:47:32.189Z,17.10
2018-04-10T07:48:32.182Z,17.19
2018-04-10T07:49:32.180Z,17.07
2018-04-10T07:50:32.161Z,17.10
2018-04-10T07:51:32.158Z,17.22
2018-04-10T07:52:32.118Z,17.22
2018-04-10T07:53:32.105Z,17.14
2018-04-10T07:54:32.108Z,17.27
2018-04-10T07:55:32.082Z,17.25
2018-04-10T07:56:32.081Z,17.28
2018-04-10T07:57:32.081Z,17.32
2018-04-10T07:58:32.063Z,17.13
2018-04-10T07:59:32.023Z,17.10
2018-04-10T08:00:32.007Z,17.12
2018-04-10T08:01:31.995Z,17.13
2018-04-10T08:02:31.986Z,17.13
2018-04-10T08:03:31.990Z,17.19
2018-04-10T08:04:31.980Z,17.25
2018-04-10T08:05:31.964Z,17.07
2018-04-10T08:06:31.943Z,17.17
2018-04-10T08:07:31.936Z,17.17
2018-04-10T08:08:31.925Z,17.24
2018-04-10T08:09:31.916Z,17.25
2018-04-10T08:10:31.903Z,17.37
2018-04-10T08:11:31.855Z,17.27
2018-04-10T08:12:31.865Z,17.22
2018-04-10T08:14:55.030Z,17.25
2018-04-10T08:15:55.010Z,17.27
2018-04-10T08:16:54.997Z,17.17
2018-04-10T08:17:54.991Z,17.22
2018-04-10T08:18:54.983Z,17.34
2018-04-10T08:19:54.953Z,17.46
2018-04-10T08:20:54.958Z,17.53
2018-04-10T08:21:54.935Z,17.52
2018-04-10T08:22:54.902Z,17.73
2018-04-10T08:23:54.923Z,17.75
2018-04-10T08:24:54.885Z,17.94
2018-04-10T08:25:54.874Z,17.94
2018-04-10T08:26:54.853Z,17.93
2018-04-10T08:27:54.847Z,18.03
2018-04-10T08:28:54.851Z,18.05
2018-04-10T08:29:54.811Z,18.18
2018-04-10T08:30:54.801Z,18.23
2018-04-10T08:31:54.785Z,18.15
2018-04-10T08:32:54.770Z,18.18
2018-04-10T08:33:54.793Z,18.21
2018-04-10T08:34:54.743Z,18.15
2018-04-10T08:35:54.737Z,18.11
2018-04-10T08:36:54.739Z,18.06
2018-04-10T08:37:54.775Z,17.94
2018-04-10T08:38:54.705Z,18.02
2018-04-10T08:39:54.734Z,17.94
2018-04-10T08:40:54.690Z,18.02
2018-04-10T08:41:54.665Z,18.05
2018-04-10T08:42:54.642Z,18.01
2018-04-10T08:43:54.622Z,18.06
2018-04-10T08:44:54.630Z,18.03
2018-04-10T08:45:54.599Z,18.03
2018-04-10T08:46:54.609Z,18.05
2018-04-10T08:47:54.578Z,17.99
2018-04-10T08:48:54.558Z,17.97
2018-04-10T08:49:54.547Z,18.06
2018-04-10T08:50:54.551Z,18.09
2018-04-10T08:51:54.701Z,18.13
2018-04-10T08:52:54.519Z,18.17
2018-04-10T08:53:54.509Z,18.12
2018-04-10T08:54:54.491Z,18.06
2018-04-10T08:55:54.544Z,18.12
2018-04-10T08:56:54.465Z,18.15
2018-04-10T08:57:54.470Z,18.26
2018-04-10T08:58:54.428Z,18.33
2018-04-10T08:59:54.420Z,18.24
2018-04-10T09:00:54.442Z,18.24
2018-04-10T09:01:54.424Z,18.26
2018-04-10T09:02:54.425Z,18.36
2018-04-10T09:03:54.369Z,18.45
2018-04-10T09:04:54.395Z,18.56
2018-04-10T09:05:54.343Z,18.64
2018-04-10T09:06:54.360Z,18.70
2018-04-10T09:07:54.326Z,18.75
2018-04-10T09:08:54.310Z,18.81
2018-04-10T09:09:54.338Z,18.85
2018-04-10T09:10:54.283Z,18.94
2018-04-10T09:11:54.268Z,18.91
2018-04-10T09:12:54.268Z,18.94
2018-04-10T09:13:54.268Z,18.86
2018-04-10T09:14:54.238Z,18.71
2018-04-10T09:15:54.248Z,18.68
2018-04-10T09:16:54.241Z,18.71
2018-04-10T09:17:54.239Z,18.83
2018-04-10T09:18:54.190Z,18.81
2018-04-10T09:19:54.195Z,18.96
2018-04-10T09:20:54.164Z,18.98
2018-04-10T09:21:54.152Z,19.05
2018-04-10T09:22:54.146Z,19.17
2018-04-10T09:23:54.131Z,19.16
2018-04-10T09:24:54.140Z,19.23
2018-04-10T09:25:54.142Z,19.37
2018-04-10T09:26:54.121Z,19.39
2018-04-10T09:27:54.113Z,19.39
2018-04-10T09:28:54.072Z,19.39
2018-04-10T09:29:54.064Z,19.44
2018-04-10T09:30:54.095Z,19.56
2018-04-10T09:31:54.041Z,19.53
2018-04-10T09:32:54.028Z,19.53
2018-04-10T09:33:54.013Z,19.38
2018-04-10T09:34:54.015Z,19.27
2018-04-10T09:35:54.008Z,19.32
2018-04-10T09:36:54.010Z,19.37
2018-04-10T09:37:53.988Z,19.26
2018-04-10T09:38:53.960Z,19.05
2018-04-10T09:39:53.971Z,18.98
2018-04-10T09:40:53.959Z,18.88
2018-04-10T09:41:53.961Z,18.88
2018-04-10T09:42:53.946Z,18.94
2018-04-10T09:43:53.901Z,19.04
2018-04-10T09:44:53.916Z,19.15
2018-04-10T09:45:53.927Z,19.27
2018-04-10T09:46:53.867Z,19.27
2018-04-10T09:47:53.877Z,19.42
2018-04-10T09:48:53.888Z,19.41
2018-04-10T09:49:53.837Z,19.39
2018-04-10T09:50:53.826Z,19.16
2018-04-10T09:51:53.860Z,18.98
2018-04-10T09:52:53.824Z,18.96
2018-04-10T09:53:53.798Z,18.94
2018-04-10T09:54:53.804Z,19.00
2018-04-10T09:55:53.809Z,19.01
2018-04-10T09:56:53.775Z,19.17
2018-04-10T09:57:53.752Z,19.16
2018-04-10T09:58:53.785Z,19.05
2018-04-10T09:59:53.730Z,19.13
2018-04-10T10:00:53.719Z,19.30
2018-04-10T10:01:53.710Z,19.50
2018-04-10T10:02:53.699Z,19.57
2018-04-10T10:03:53.718Z,19.64
2018-04-10T10:04:53.675Z,19.59
2018-04-10T10:05:53.665Z,19.72
2018-04-10T10:06:53.676Z,19.79
2018-04-10T10:07:53.652Z,19.86
2018-04-10T10:08:53.627Z,19.82
2018-04-10T10:09:53.649Z,19.75
2018-04-10T10:10:53.626Z,19.60
2018-04-10T10:11:53.609Z,19.59
2018-04-10T10:12:53.640Z,19.67
2018-04-10T10:13:53.579Z,19.70
2018-04-10T10:14:53.568Z,19.63
2018-04-10T10:15:53.558Z,19.59
2018-04-10T10:16:53.550Z,19.53
2018-04-10T10:17:53.539Z,19.45
2018-04-10T10:18:53.528Z,19.39
2018-04-10T10:19:53.522Z,19.37
2018-04-10T10:20:53.515Z,19.38
2018-04-10T10:21:53.510Z,19.41
2018-04-10T10:22:53.488Z,19.41
2018-04-10T10:23:53.476Z,19.35
2018-04-10T10:24:53.484Z,19.30
2018-04-10T10:25:53.494Z,19.38
2018-04-10T10:26:53.446Z,19.41
2018-04-10T10:27:53.434Z,19.42
2018-04-10T10:28:53.447Z,19.44
2018-04-10T10:29:53.407Z,19.50
2018-04-10T10:30:53.405Z,19.42
2018-04-10T10:31:53.410Z,19.45
2018-04-10T10:32:53.415Z,19.45
2018-04-10T10:33:53.381Z,19.63
2018-04-10T10:34:53.382Z,19.59
2018-04-10T10:35:53.376Z,19.52
2018-04-10T10:36:53.332Z,19.54
2018-04-10T10:37:53.347Z,19.60
2018-04-10T10:38:53.308Z,19.70
2018-04-10T10:39:53.299Z,19.86
2018-04-10T10:40:53.295Z,19.99
2018-04-10T10:41:53.302Z,20.04
2018-04-10T10:42:53.275Z,19.96
2018-04-10T10:43:53.269Z,20.02
2018-04-10T10:44:53.246Z,19.81
2018-04-10T10:45:53.278Z,19.75
2018-04-10T10:46:53.245Z,19.75
2018-04-10T10:47:53.221Z,19.87
2018-04-10T10:48:53.245Z,19.93
2018-04-10T10:49:53.198Z,20.04
2018-04-10T10:50:53.204Z,20.12
2018-04-10T10:51:53.216Z,20.11
2018-04-10T10:52:53.235Z,20.30
2018-04-10T10:53:53.212Z,20.26
2018-04-10T10:54:53.179Z,20.15
2018-04-10T10:55:53.201Z,20.26
2018-04-10T10:56:53.172Z,20.25
2018-04-10T10:57:53.168Z,20.19
2018-04-10T10:58:53.160Z,20.34
2018-04-10T10:59:53.157Z,20.32
2018-04-10T11:00:53.166Z,20.33
2018-04-10T11:01:53.098Z,20.46
2018-04-10T11:02:53.062Z,20.36
2018-04-10T11:03:53.082Z,20.26
2018-04-10T11:04:53.045Z,20.29
2018-04-10T11:05:53.056Z,20.25
2018-04-10T11:06:53.056Z,20.30
2018-04-10T11:07:53.104Z,20.42
2018-04-10T11:08:53.028Z,20.34
2018-04-10T11:09:52.998Z,20.44
2018-04-10T11:10:53.006Z,20.53
2018-04-10T11:11:52.991Z,20.46
2018-04-10T11:12:53.027Z,20.41
2018-04-10T11:13:52.965Z,20.34
2018-04-10T11:16:15.025Z,20.50
2018-04-10T11:17:14.996Z,20.52
2018-04-10T11:19:09.406Z,20.32
2018-04-10T11:20:09.389Z,20.15
2018-04-10T11:21:09.349Z,20.09
2018-04-10T11:22:09.348Z,20.07
2018-04-10T11:23:09.336Z,20.08
2018-04-10T11:24:09.364Z,20.22
2018-04-10T11:25:09.312Z,20.36
2018-04-10T11:26:09.316Z,20.56
2018-04-10T11:27:09.291Z,20.55
2018-04-10T11:28:09.283Z,20.64
2018-04-10T11:29:09.297Z,20.64
2018-04-10T11:30:09.263Z,20.75
2018-04-10T11:31:09.271Z,20.90
2018-04-10T11:32:09.240Z,20.92
2018-04-10T11:33:09.244Z,20.93
2018-04-10T11:34:09.222Z,20.97
2018-04-10T11:35:09.223Z,21.07
2018-04-10T11:36:09.241Z,20.93
2018-04-10T11:37:09.212Z,20.93
2018-04-10T11:38:09.179Z,20.85
2018-04-10T11:39:09.224Z,20.82
2018-04-10T11:40:09.162Z,20.85
2018-04-10T11:41:09.155Z,20.68
2018-04-10T11:42:09.186Z,20.68
2018-04-10T11:43:09.160Z,20.82
2018-04-10T11:44:09.130Z,20.85
2018-04-10T11:45:09.122Z,20.88
2018-04-10T11:46:09.120Z,20.98
2018-04-10T11:47:09.116Z,21.00
2018-04-10T11:48:09.093Z,21.04
2018-04-10T11:49:09.101Z,20.82
2018-04-10T11:50:09.102Z,20.75
2018-04-10T11:51:09.067Z,20.88
2018-04-10T11:52:09.054Z,20.88
2018-04-10T11:53:09.055Z,20.77
2018-04-10T11:54:09.058Z,20.75
2018-04-10T11:55:09.020Z,20.90
2018-04-10T11:56:09.023Z,20.86
2018-04-10T11:57:09.038Z,20.97
2018-04-10T11:58:08.991Z,21.01
2018-04-10T11:59:09.036Z,20.92
2018-04-10T12:00:09.013Z,20.98
2018-04-10T12:01:09.015Z,21.08
2018-04-10T12:02:08.993Z,21.08
2018-04-10T12:03:08.951Z,21.03
2018-04-10T12:04:08.958Z,21.14
2018-04-10T12:05:08.931Z,21.22
2018-04-10T12:06:08.930Z,21.28
2018-04-10T12:07:08.948Z,21.23
2018-04-10T12:08:08.916Z,21.05
2018-04-10T12:09:08.918Z,21.11
2018-04-10T12:10:08.880Z,21.20
2018-04-10T12:11:08.879Z,21.38
2018-04-10T12:12:08.875Z,21.32
2018-04-10T12:13:08.859Z,21.28
2018-04-10T12:14:08.947Z,21.23
2018-04-10T12:15:08.859Z,21.23
2018-04-10T12:16:08.872Z,21.18
2018-04-10T12:17:08.822Z,21.13
2018-04-10T12:18:08.814Z,21.11
2018-04-10T12:19:08.923Z,21.07
2018-04-10T12:20:08.799Z,21.10
2018-04-10T12:21:08.801Z,21.22
2018-04-10T12:22:08.779Z,21.16
2018-04-10T12:23:08.831Z,21.28
2018-04-10T12:24:08.765Z,21.32
2018-04-10T12:25:08.753Z,21.41
2018-04-10T12:26:08.870Z,21.37
2018-04-10T12:27:08.747Z,21.34
2018-04-10T12:28:08.848Z,21.37
2018-04-10T12:29:08.714Z,21.11
2018-04-10T12:30:08.706Z,21.11
2018-04-10T12:31:08.694Z,21.04
2018-04-10T12:32:08.739Z,21.11
2018-04-10T12:33:08.723Z,21.18
2018-04-10T12:34:08.670Z,21.11
2018-04-10T12:35:08.683Z,21.16
2018-04-10T12:36:08.682Z,20.98
2018-04-10T12:37:08.647Z,21.16
2018-04-10T12:38:08.718Z,21.19
2018-04-10T12:39:08.692Z,20.97
2018-04-10T12:40:08.643Z,20.74
2018-04-10T12:41:08.627Z,20.73
2018-04-10T12:42:08.602Z,20.80
2018-04-10T12:43:08.668Z,20.83
2018-04-10T12:44:08.601Z,20.79
2018-04-10T12:45:08.576Z,20.77
2018-04-10T12:46:08.568Z,20.89
2018-04-10T12:47:08.555Z,21.01
2018-04-10T12:48:08.559Z,21.00
2018-04-10T12:49:08.533Z,21.05
2018-04-10T12:50:08.560Z,21.10
2018-04-10T12:51:08.517Z,21.22
2018-04-10T12:52:08.509Z,21.23
2018-04-10T12:53:08.502Z,21.08
2018-04-10T12:54:08.524Z,21.05
2018-04-10T12:55:08.504Z,21.18
2018-04-10T12:56:08.495Z,21.10
2018-04-10T12:57:08.506Z,21.16
2018-04-10T12:58:08.459Z,21.20